createdAt,value
2022-09-17T00:01:42.204Z,7.97
2022-09-17T00:04:12.314Z,7.75
2022-09-17T00:06:40.882Z,7.03
2022-09-17T00:09:10.093Z,7.97
2022-09-17T00:11:42.784Z,7.90
2022-09-17T00:16:47.235Z,7.57
2022-09-17T00:19:20.271Z,7.03
2022-09-17T00:21:49.240Z,7.40
2022-09-17T00:24:19.077Z,7.53
2022-09-17T00:26:48.182Z,6.88
2022-09-17T00:29:17.161Z,6.72
2022-09-17T00:31:45.750Z,7.20
2022-09-17T00:34:14.462Z,6.97
2022-09-17T00:36:43.310Z,6.55
2022-09-17T00:39:13.390Z,7.10
2022-09-17T00:41:42.041Z,7.18
2022-09-17T00:44:44.548Z,7.65
2022-09-17T00:47:15.864Z,6.85
2022-09-17T00:49:45.132Z,6.50
2022-09-17T00:52:25.737Z,6.55
2022-09-17T00:55:07.425Z,6.25
2022-09-17T00:57:37.252Z,7.40
2022-09-17T01:00:07.613Z,6.50
2022-09-17T01:02:37.110Z,6.35
2022-09-17T01:05:05.311Z,6.60
2022-09-17T01:08:12.503Z,6.70
2022-09-17T01:10:56.920Z,6.25
2022-09-17T01:13:27.973Z,6.53
2022-09-17T01:15:59.845Z,6.32
2022-09-17T01:18:40.665Z,7.33
2022-09-17T01:21:54.218Z,6.25
2022-09-17T01:25:07.766Z,6.65
2022-09-17T01:27:59.537Z,6.68
2022-09-17T01:30:41.333Z,6.85
2022-09-17T01:33:41.921Z,6.75
2022-09-17T01:36:25.146Z,6.72
2022-09-17T01:39:03.495Z,7.22
2022-09-17T01:41:48.024Z,6.82
2022-09-17T01:44:29.279Z,7.47
2022-09-17T01:47:08.308Z,6.97
2022-09-17T01:49:40.383Z,14.07
2022-09-17T01:52:12.232Z,8.70
2022-09-17T01:54:55.708Z,6.82
2022-09-17T01:57:27.286Z,7.20
2022-09-17T02:00:15.927Z,6.93
2022-09-17T02:03:05.978Z,7.45
2022-09-17T02:05:47.022Z,7.05
2022-09-17T02:08:28.572Z,6.50
2022-09-17T02:11:03.867Z,6.55
2022-09-17T02:13:53.857Z,6.78
2022-09-17T02:16:35.732Z,6.70
2022-09-17T02:19:13.076Z,6.53
2022-09-17T02:22:11.872Z,6.82
2022-09-17T02:25:08.356Z,6.90
2022-09-17T02:27:48.986Z,6.93
2022-09-17T02:30:17.921Z,7.07
2022-09-17T02:32:47.726Z,7.00
2022-09-17T02:35:16.920Z,8.27
2022-09-17T02:37:46.176Z,8.60
2022-09-17T02:40:17.623Z,8.00
2022-09-17T02:43:04.828Z,7.78
2022-09-17T02:46:06.017Z,8.45
2022-09-17T02:49:08.029Z,8.13
2022-09-17T02:52:12.808Z,7.70
2022-09-17T02:55:24.100Z,8.43
2022-09-17T02:58:02.588Z,7.65
2022-09-17T03:00:31.612Z,7.47
2022-09-17T03:03:41.174Z,8.30
2022-09-17T03:06:09.783Z,7.80
2022-09-17T03:08:42.459Z,7.38
2022-09-17T03:11:14.314Z,7.55
2022-09-17T03:13:43.360Z,7.68
2022-09-17T03:16:11.939Z,8.07
2022-09-17T03:18:40.601Z,9.40
2022-09-17T03:21:09.175Z,8.85
2022-09-17T03:23:37.767Z,7.50
2022-09-17T03:26:06.358Z,8.65
2022-09-17T03:28:35.006Z,7.82
2022-09-17T03:31:03.600Z,9.45
2022-09-17T03:33:32.247Z,8.90
2022-09-17T03:36:00.828Z,8.35
2022-09-17T03:38:29.282Z,8.73
2022-09-17T03:41:10.750Z,8.80
2022-09-17T03:43:41.084Z,8.02
2022-09-17T03:46:09.660Z,8.55
2022-09-17T03:48:40.966Z,7.50
2022-09-17T03:51:09.219Z,8.65
2022-09-17T03:53:38.077Z,7.78
2022-09-17T03:56:08.688Z,8.88
2022-09-17T03:58:37.598Z,8.20
2022-09-17T04:01:06.778Z,8.52
2022-09-17T04:03:35.422Z,8.15
2022-09-17T04:06:04.115Z,8.35
2022-09-17T04:08:32.793Z,8.70
2022-09-17T04:11:01.508Z,9.48
2022-09-17T04:13:30.375Z,8.85
2022-09-17T04:15:59.243Z,8.77
2022-09-17T04:18:27.894Z,7.93
2022-09-17T04:20:56.446Z,8.85
2022-09-17T04:23:24.876Z,8.35
2022-09-17T04:25:53.690Z,8.50
2022-09-17T04:28:22.345Z,8.77
2022-09-17T04:30:51.192Z,8.73
2022-09-17T04:33:19.837Z,8.40
2022-09-17T04:35:48.478Z,8.00
2022-09-17T04:38:19.830Z,8.32
2022-09-17T04:40:48.854Z,8.65
2022-09-17T04:43:17.596Z,8.50
2022-09-17T04:45:50.351Z,8.52
2022-09-17T04:48:19.299Z,8.80
2022-09-17T04:50:47.606Z,9.55
2022-09-17T04:53:16.406Z,9.60
2022-09-17T04:55:45.254Z,9.88
2022-09-17T04:58:13.564Z,9.50
2022-09-17T05:00:43.760Z,9.15
2022-09-17T05:03:12.397Z,9.35
2022-09-17T05:05:41.224Z,9.20
2022-09-17T05:08:09.957Z,9.25
2022-09-17T05:10:38.425Z,9.23
2022-09-17T05:13:06.818Z,8.57
2022-09-17T05:15:36.215Z,8.73
2022-09-17T05:18:05.320Z,8.02
2022-09-17T05:20:33.823Z,8.30
2022-09-17T05:23:02.171Z,8.32
2022-09-17T05:25:30.091Z,8.15
2022-09-17T05:27:58.651Z,8.52
2022-09-17T05:30:27.233Z,8.52
2022-09-17T05:33:04.335Z,8.75
2022-09-17T05:35:33.435Z,8.63
2022-09-17T05:38:07.227Z,8.73
2022-09-17T05:40:35.930Z,8.65
2022-09-17T05:43:07.580Z,8.02
2022-09-17T05:45:36.875Z,7.95
2022-09-17T05:48:07.486Z,8.73
2022-09-17T05:50:36.252Z,9.27
2022-09-17T05:53:11.718Z,8.93
2022-09-17T05:55:40.801Z,9.35
2022-09-17T05:58:17.962Z,9.32
2022-09-17T06:00:48.568Z,9.07
2022-09-17T06:03:18.957Z,8.43
2022-09-17T06:06:01.046Z,9.30
2022-09-17T06:08:30.625Z,8.77
2022-09-17T06:11:02.442Z,8.75
2022-09-17T06:13:32.268Z,9.15
2022-09-17T06:16:01.423Z,9.38
2022-09-17T06:18:32.194Z,9.48
2022-09-17T06:21:03.995Z,10.18
2022-09-17T06:23:38.646Z,9.85
2022-09-17T06:26:08.636Z,9.85
2022-09-17T06:28:41.535Z,9.52
2022-09-17T06:31:11.940Z,10.13
2022-09-17T06:33:40.729Z,10.38
2022-09-17T06:36:14.602Z,9.85
2022-09-17T06:38:44.338Z,10.75
2022-09-17T06:41:13.791Z,10.63
2022-09-17T06:43:42.492Z,10.43
2022-09-17T06:46:12.131Z,10.85
2022-09-17T06:48:40.350Z,11.20
2022-09-17T06:51:11.834Z,9.82
2022-09-17T06:53:41.047Z,11.65
2022-09-17T06:56:11.631Z,10.25
2022-09-17T06:58:42.990Z,10.27
2022-09-17T07:01:13.965Z,11.00
2022-09-17T07:03:46.901Z,10.65
2022-09-17T07:06:15.511Z,11.40
2022-09-17T07:08:44.125Z,10.80
2022-09-17T07:11:12.765Z,11.60
2022-09-17T07:13:41.158Z,10.90
2022-09-17T07:16:11.602Z,10.85
2022-09-17T07:18:41.421Z,10.60
2022-09-17T07:21:11.809Z,11.15
2022-09-17T07:23:40.418Z,11.02
2022-09-17T07:26:13.984Z,12.43
2022-09-17T07:28:44.891Z,11.68
2022-09-17T07:31:16.571Z,11.55
2022-09-17T07:33:46.135Z,11.18
2022-09-17T07:36:17.042Z,11.60
2022-09-17T07:38:45.870Z,10.80
2022-09-17T07:41:16.865Z,11.38
2022-09-17T07:43:46.149Z,10.93
2022-09-17T07:46:21.314Z,11.10
2022-09-17T07:48:50.515Z,11.10
2022-09-17T07:51:20.798Z,10.77
2022-09-17T07:53:51.739Z,10.73
2022-09-17T07:56:20.060Z,11.45
2022-09-17T07:58:48.419Z,10.00
2022-09-17T08:01:18.191Z,11.07
2022-09-17T08:03:53.926Z,11.10
2022-09-17T08:06:27.095Z,12.07
2022-09-17T08:11:51.905Z,13.02
2022-09-17T08:14:17.781Z,13.70
2022-09-17T08:16:48.772Z,13.05
2022-09-17T08:19:18.939Z,14.02
2022-09-17T08:21:47.268Z,13.20
2022-09-17T08:24:15.704Z,13.73
2022-09-17T08:26:44.389Z,13.05
2022-09-17T08:29:12.952Z,12.75
2022-09-17T08:31:41.575Z,12.60
2022-09-17T08:34:11.165Z,13.00
2022-09-17T08:36:39.830Z,13.80
2022-09-17T08:39:08.225Z,14.63
2022-09-17T08:42:07.826Z,16.60
2022-09-17T08:44:44.326Z,16.52
2022-09-17T08:47:12.801Z,16.75
2022-09-17T08:49:43.367Z,15.02
2022-09-17T08:52:45.073Z,14.20
2022-09-17T08:55:22.795Z,13.85
2022-09-17T08:58:09.570Z,15.90
2022-09-17T09:00:48.515Z,14.32
2022-09-17T09:03:32.559Z,15.85
2022-09-17T09:06:06.166Z,14.38
2022-09-17T09:08:47.159Z,15.35
2022-09-17T09:11:23.879Z,14.73
2022-09-17T09:13:59.984Z,10.88
2022-09-17T09:16:35.527Z,6.55
2022-09-17T09:19:28.507Z,4.88
2022-09-17T09:22:32.124Z,3.10
2022-09-17T09:25:15.285Z,3.40
2022-09-17T09:28:21.257Z,3.05
2022-09-17T09:31:10.190Z,2.70
2022-09-17T09:33:47.556Z,2.88
2022-09-17T09:36:23.425Z,2.38
2022-09-17T09:39:03.227Z,2.67
2022-09-17T09:41:34.684Z,2.30
2022-09-17T09:44:05.614Z,2.30
2022-09-17T09:46:46.653Z,2.17
2022-09-17T09:49:37.032Z,2.33
2022-09-17T09:52:15.742Z,2.10
2022-09-17T09:55:17.943Z,1.90
2022-09-17T09:57:50.144Z,1.80
2022-09-17T10:00:29.857Z,1.67
2022-09-17T10:03:13.435Z,1.90
2022-09-17T10:08:16.102Z,1.70
2022-09-17T10:10:57.147Z,1.50
2022-09-17T10:13:26.720Z,1.30
2022-09-17T10:15:55.893Z,1.42
2022-09-17T10:18:26.785Z,1.23
2022-09-17T10:20:57.923Z,1.30
2022-09-17T10:23:29.453Z,1.55
2022-09-17T10:25:58.743Z,1.38
2022-09-17T10:28:48.086Z,1.60
2022-09-17T10:31:16.828Z,1.52
2022-09-17T10:34:03.777Z,1.63
2022-09-17T10:36:44.486Z,1.50
2022-09-17T10:39:45.564Z,1.38
2022-09-17T10:42:17.054Z,1.80
2022-09-17T10:44:56.797Z,1.58
2022-09-17T10:47:30.885Z,1.48
2022-09-17T10:50:07.613Z,1.40
2022-09-17T10:52:39.901Z,1.65
2022-09-17T10:55:17.851Z,1.60
2022-09-17T10:58:10.232Z,1.60
2022-09-17T11:00:49.276Z,1.40
2022-09-17T11:03:35.640Z,1.42
2022-09-17T11:06:18.931Z,1.35
2022-09-17T11:08:56.054Z,1.48
2022-09-17T11:11:55.639Z,1.70
2022-09-17T11:14:50.878Z,1.40
2022-09-17T11:17:44.537Z,1.50
2022-09-17T11:20:42.326Z,1.38
2022-09-17T11:23:32.311Z,1.10
2022-09-17T11:26:06.718Z,1.27
2022-09-17T11:28:43.643Z,1.02
2022-09-17T11:31:30.813Z,1.10
2022-09-17T11:34:19.508Z,1.00
2022-09-17T11:37:22.146Z,0.90
2022-09-17T11:40:23.330Z,1.17
2022-09-17T11:43:15.085Z,0.98
2022-09-17T11:46:00.506Z,0.98
2022-09-17T11:48:49.753Z,1.13
2022-09-17T11:51:32.700Z,1.00
2022-09-17T11:54:22.082Z,0.80
2022-09-17T11:56:55.005Z,0.90
2022-09-17T11:59:58.939Z,0.60
2022-09-17T12:02:47.953Z,0.80
2022-09-17T12:05:32.831Z,0.80
2022-09-17T12:08:18.755Z,0.88
2022-09-17T12:10:54.953Z,0.80
2022-09-17T12:13:36.719Z,0.70
2022-09-17T12:16:10.324Z,0.70
2022-09-17T12:18:52.862Z,0.70
2022-09-17T12:21:41.085Z,0.73
2022-09-17T12:24:28.602Z,0.60
2022-09-17T12:27:21.736Z,0.60
2022-09-17T12:30:13.046Z,0.68
2022-09-17T12:33:04.318Z,0.50
2022-09-17T12:36:04.893Z,0.75
2022-09-17T12:39:04.410Z,0.68
2022-09-17T12:42:08.017Z,0.60
2022-09-17T12:45:18.467Z,0.40
2022-09-17T12:48:32.704Z,0.52
2022-09-17T12:51:04.030Z,0.50
2022-09-17T12:53:42.927Z,0.50
2022-09-17T12:56:52.296Z,0.50
2022-09-17T12:59:21.921Z,0.50
2022-09-17T13:02:20.391Z,0.50
2022-09-17T13:05:22.838Z,0.55
2022-09-17T13:08:12.736Z,0.50
2022-09-17T13:10:56.416Z,0.50
2022-09-17T13:13:38.303Z,0.73
2022-09-17T13:16:17.019Z,0.40
2022-09-17T13:19:15.563Z,0.50
2022-09-17T13:21:56.706Z,0.40
2022-09-17T13:24:28.474Z,0.43
2022-09-17T13:26:57.836Z,0.50
2022-09-17T13:29:45.242Z,0.50
2022-09-17T13:32:35.697Z,0.47
2022-09-17T13:35:13.083Z,0.50
2022-09-17T13:37:58.188Z,0.50
2022-09-17T13:40:29.920Z,0.52
2022-09-17T13:43:00.490Z,0.40
2022-09-17T13:45:29.220Z,0.50
2022-09-17T13:48:07.583Z,0.60
2022-09-17T13:50:44.514Z,0.60
2022-09-17T13:53:16.640Z,0.55
2022-09-17T13:55:54.239Z,0.60
2022-09-17T13:58:22.779Z,0.60
2022-09-17T14:01:03.722Z,0.70
2022-09-17T14:03:32.437Z,0.70
2022-09-17T14:06:06.784Z,0.60
2022-09-17T14:08:50.778Z,0.77
2022-09-17T14:11:25.563Z,0.80
2022-09-17T14:14:20.161Z,0.77
2022-09-17T14:16:51.580Z,0.90
2022-09-17T14:19:34.836Z,0.90
2022-09-17T14:22:07.290Z,0.95
2022-09-17T14:24:44.250Z,1.00
2022-09-17T14:27:51.621Z,0.93
2022-09-17T14:30:22.677Z,1.20
2022-09-17T14:32:58.263Z,1.13
2022-09-17T14:36:22.751Z,1.15
2022-09-17T14:38:54.850Z,1.10
2022-09-17T14:41:37.034Z,1.08
2022-09-17T14:44:18.279Z,1.02
2022-09-17T14:46:51.304Z,0.90
2022-09-17T14:49:26.528Z,1.00
2022-09-17T14:51:57.373Z,0.82
2022-09-17T14:54:27.286Z,1.02
2022-09-17T14:57:00.162Z,1.05
2022-09-17T14:59:32.025Z,0.95
2022-09-17T15:02:01.249Z,1.40
2022-09-17T15:04:30.198Z,0.95
2022-09-17T15:07:13.602Z,1.10
2022-09-17T15:09:42.170Z,0.90
2022-09-17T15:12:10.779Z,1.10
2022-09-17T15:14:41.255Z,1.30
2022-09-17T15:17:17.437Z,1.10
2022-09-17T15:19:51.048Z,1.60
2022-09-17T15:22:24.357Z,1.05
2022-09-17T15:27:31.615Z,1.20
2022-09-17T15:30:24.316Z,1.15
2022-09-17T15:33:01.174Z,1.00
2022-09-17T15:35:34.839Z,1.15
2022-09-17T15:38:23.276Z,1.13
2022-09-17T15:40:53.023Z,1.30
2022-09-17T15:43:35.931Z,0.90
2022-09-17T15:46:24.993Z,1.00
2022-09-17T15:48:54.211Z,1.10
2022-09-17T15:51:30.386Z,1.08
2022-09-17T15:54:06.743Z,1.02
2022-09-17T15:56:42.049Z,1.10
2022-09-17T15:59:26.415Z,0.95
2022-09-17T16:01:58.469Z,1.15
2022-09-17T16:04:28.295Z,0.80
2022-09-17T16:07:10.130Z,0.90
2022-09-17T16:09:51.131Z,1.00
2022-09-17T16:12:22.693Z,1.00
2022-09-17T16:14:57.086Z,1.00
2022-09-17T16:17:48.722Z,0.90
2022-09-17T16:20:27.182Z,0.73
2022-09-17T16:22:55.863Z,0.80
2022-09-17T16:25:27.324Z,0.75
2022-09-17T16:28:01.150Z,1.02
2022-09-17T16:30:29.555Z,1.00
2022-09-17T16:32:58.247Z,0.80
2022-09-17T16:35:28.063Z,0.90
2022-09-17T16:37:58.018Z,0.95
2022-09-17T16:40:29.430Z,0.77
2022-09-17T16:43:00.961Z,0.68
2022-09-17T16:45:30.566Z,0.60
2022-09-17T16:47:59.741Z,0.70
2022-09-17T16:50:30.235Z,0.50
2022-09-17T16:53:04.138Z,0.60
2022-09-17T16:55:33.973Z,0.70
2022-09-17T16:58:02.566Z,0.60
2022-09-17T17:00:31.860Z,0.70
2022-09-17T17:03:00.620Z,0.70
2022-09-17T17:05:29.588Z,0.73
2022-09-17T17:08:01.198Z,0.65
2022-09-17T17:10:31.867Z,0.70
2022-09-17T17:13:00.549Z,0.60
2022-09-17T17:15:29.027Z,0.50
2022-09-17T17:17:58.963Z,0.70
2022-09-17T17:20:27.763Z,0.50
2022-09-17T17:22:57.042Z,0.60
2022-09-17T17:25:25.595Z,0.57
2022-09-17T17:27:54.656Z,0.50
2022-09-17T17:30:23.031Z,0.70
2022-09-17T17:32:54.013Z,0.60
2022-09-17T17:35:22.550Z,0.50
2022-09-17T17:37:51.951Z,0.60
2022-09-17T17:40:20.961Z,0.43
2022-09-17T17:42:53.719Z,0.50
2022-09-17T17:45:22.901Z,0.50
2022-09-17T17:47:51.509Z,0.40
2022-09-17T17:50:20.915Z,0.60
2022-09-17T17:52:50.397Z,0.50
2022-09-17T17:55:19.051Z,0.40
2022-09-17T17:57:47.696Z,0.50
2022-09-17T18:00:18.119Z,0.40
2022-09-17T18:02:46.630Z,0.40
2022-09-17T18:05:15.551Z,0.40
2022-09-17T18:07:44.352Z,0.40
2022-09-17T18:10:13.010Z,0.35
2022-09-17T18:12:41.600Z,0.30
2022-09-17T18:15:10.811Z,0.40
2022-09-17T18:17:39.365Z,0.40
2022-09-17T18:20:08.158Z,0.30
2022-09-17T18:22:36.987Z,0.40
2022-09-17T18:25:05.763Z,0.40
2022-09-17T18:27:34.576Z,0.30
2022-09-17T18:30:03.325Z,0.40
2022-09-17T18:32:32.246Z,0.40
2022-09-17T18:35:00.771Z,0.30
2022-09-17T18:37:30.351Z,1.00
2022-09-17T18:39:59.537Z,0.40
2022-09-17T18:42:28.423Z,0.40
2022-09-17T18:44:56.751Z,0.40
2022-09-17T18:47:25.353Z,0.30
2022-09-17T18:49:53.921Z,0.40
2022-09-17T18:52:22.551Z,0.50
2022-09-17T18:54:51.084Z,0.52
2022-09-17T18:57:19.680Z,0.40
2022-09-17T18:59:48.254Z,0.30
2022-09-17T19:02:16.837Z,0.30
2022-09-17T19:04:45.536Z,0.80
2022-09-17T19:07:14.126Z,0.40
2022-09-17T19:09:42.872Z,0.30
2022-09-17T19:12:11.988Z,0.40
2022-09-17T19:14:40.535Z,0.30
2022-09-17T19:17:10.234Z,0.50
2022-09-17T19:19:39.008Z,0.50
2022-09-17T19:22:08.316Z,0.60
2022-09-17T19:24:37.286Z,0.40
2022-09-17T19:27:06.047Z,0.30
2022-09-17T19:29:34.709Z,0.40
2022-09-17T19:32:03.632Z,0.30
2022-09-17T19:34:32.191Z,2.10
2022-09-17T19:37:01.082Z,0.47
2022-09-17T19:39:29.641Z,0.57
2022-09-17T19:41:58.137Z,0.40
2022-09-17T19:44:26.847Z,0.32
2022-09-17T19:46:55.457Z,0.30
2022-09-17T19:49:24.228Z,0.32
2022-09-17T19:51:52.799Z,0.40
2022-09-17T19:54:21.349Z,0.30
2022-09-17T19:56:49.899Z,0.40
2022-09-17T19:59:18.333Z,0.40
2022-09-17T20:01:49.444Z,0.30
2022-09-17T20:04:19.403Z,0.75
2022-09-17T20:06:47.731Z,0.30
2022-09-17T20:09:16.322Z,0.35
2022-09-17T20:11:44.993Z,0.50
2022-09-17T20:14:14.123Z,0.50
2022-09-17T20:16:43.735Z,0.40
2022-09-17T20:19:16.798Z,0.40
2022-09-17T20:24:13.546Z,0.40
2022-09-17T20:26:42.219Z,0.30
2022-09-17T20:29:12.033Z,0.60
2022-09-17T20:31:40.957Z,0.30
2022-09-17T20:34:12.010Z,0.30
2022-09-17T20:36:40.784Z,0.30
2022-09-17T20:39:22.450Z,0.30
2022-09-17T20:41:52.263Z,0.60
2022-09-17T20:44:21.968Z,0.40
2022-09-17T20:46:50.754Z,0.28
2022-09-17T20:49:19.610Z,0.55
2022-09-17T20:51:48.153Z,0.45
2022-09-17T20:54:16.885Z,0.40
2022-09-17T20:56:46.038Z,0.30
2022-09-17T20:59:19.126Z,0.47
2022-09-17T21:04:22.502Z,0.50
2022-09-17T21:06:54.339Z,0.40
2022-09-17T21:09:22.934Z,0.40
2022-09-17T21:11:51.679Z,0.60
2022-09-17T21:14:21.565Z,0.47
2022-09-17T21:16:50.438Z,0.40
2022-09-17T21:19:19.176Z,0.45
2022-09-17T21:21:49.249Z,0.40
2022-09-17T21:24:17.895Z,0.40
2022-09-17T21:26:47.136Z,0.35
2022-09-17T21:29:15.907Z,0.40
2022-09-17T21:31:45.881Z,0.40
2022-09-17T21:34:15.300Z,0.40
2022-09-17T21:36:49.381Z,0.50
2022-09-17T21:39:19.391Z,0.50
2022-09-17T21:41:49.430Z,0.30
2022-09-17T21:44:18.122Z,0.73
2022-09-17T21:46:46.719Z,0.30
2022-09-17T21:49:17.696Z,0.40
2022-09-17T21:51:46.198Z,0.68
2022-09-17T21:54:17.176Z,0.45
2022-09-17T21:56:47.319Z,0.40
2022-09-17T21:59:17.385Z,0.40
2022-09-17T22:01:48.634Z,0.40
2022-09-17T22:04:20.069Z,0.60
2022-09-17T22:06:50.445Z,0.30
2022-09-17T22:09:25.785Z,0.50
2022-09-17T22:11:55.199Z,0.40
2022-09-17T22:14:26.527Z,0.30
2022-09-17T22:16:59.967Z,0.43
2022-09-17T22:19:28.543Z,0.45
2022-09-17T22:21:58.039Z,0.47
2022-09-17T22:24:26.809Z,0.40
2022-09-17T22:26:58.194Z,0.30
2022-09-17T22:29:28.322Z,0.40
2022-09-17T22:31:58.431Z,0.40
2022-09-17T22:34:27.831Z,0.50
2022-09-17T22:36:56.350Z,0.70
2022-09-17T22:39:24.796Z,0.40
2022-09-17T22:41:53.549Z,0.38
2022-09-17T22:44:22.372Z,1.40
2022-09-17T22:46:53.207Z,1.80
2022-09-17T22:49:22.100Z,0.40
2022-09-17T22:51:50.694Z,0.40
2022-09-17T22:54:20.300Z,0.40
2022-09-17T22:56:50.009Z,0.75
2022-09-17T22:59:18.869Z,0.38
2022-09-17T23:01:47.178Z,0.50
2022-09-17T23:04:15.636Z,0.43
2022-09-17T23:06:44.475Z,0.45
2022-09-17T23:09:14.861Z,0.43
2022-09-17T23:11:43.744Z,0.40
2022-09-17T23:14:14.616Z,0.95
2022-09-17T23:16:47.118Z,0.70
2022-09-17T23:19:18.395Z,0.60
2022-09-17T23:21:47.553Z,0.50
2022-09-17T23:24:20.176Z,0.60
2022-09-17T23:26:49.659Z,0.43
2022-09-17T23:29:18.707Z,0.60
2022-09-17T23:31:47.516Z,0.55
2022-09-17T23:34:16.060Z,0.40
2022-09-17T23:36:44.854Z,0.50
2022-09-17T23:39:14.104Z,0.47
2022-09-17T23:41:46.016Z,0.55
2022-09-17T23:44:16.282Z,0.40
2022-09-17T23:46:47.045Z,0.40
2022-09-17T23:49:16.650Z,0.40
2022-09-17T23:51:44.947Z,0.47
2022-09-17T23:54:13.305Z,0.43
2022-09-17T23:56:42.435Z,0.60
2022-09-17T23:59:11.401Z,0.70
